createdAt,value
2018-05-31T00:00:19.844Z,0
2018-05-31T00:01:19.734Z,0
2018-05-31T00:02:19.720Z,0
2018-05-31T00:03:19.790Z,0
2018-05-31T00:04:19.823Z,0
2018-05-31T00:05:19.904Z,0
2018-05-31T00:06:19.920Z,0
2018-05-31T00:07:19.819Z,0
2018-05-31T00:08:19.720Z,0
2018-05-31T00:09:19.737Z,0
2018-05-31T00:10:19.741Z,0
2018-05-31T00:11:19.746Z,0
2018-05-31T00:12:19.828Z,0
2018-05-31T00:13:20.797Z,0
2018-05-31T00:14:19.850Z,0
2018-05-31T00:15:19.785Z,0
2018-05-31T00:16:19.790Z,0
2018-05-31T00:17:19.860Z,0
2018-05-31T00:18:19.804Z,0
2018-05-31T00:19:19.924Z,0
2018-05-31T00:20:19.834Z,0
2018-05-31T00:21:19.843Z,0
2018-05-31T00:22:19.806Z,0
2018-05-31T00:23:19.809Z,0
2018-05-31T00:24:19.802Z,0
2018-05-31T00:25:19.799Z,0
2018-05-31T00:26:19.750Z,0
2018-05-31T00:27:19.832Z,0
2018-05-31T00:28:19.810Z,0
2018-05-31T00:29:19.798Z,0
2018-05-31T00:30:19.873Z,0
2018-05-31T00:31:19.815Z,0
2018-05-31T00:32:19.795Z,0
2018-05-31T00:33:19.894Z,0
2018-05-31T00:34:19.835Z,0
2018-05-31T00:35:19.848Z,0
2018-05-31T00:36:19.742Z,0
2018-05-31T00:37:19.869Z,0
2018-05-31T00:38:19.860Z,0
2018-05-31T00:39:19.874Z,0
2018-05-31T00:40:19.762Z,0
2018-05-31T00:41:19.840Z,0
2018-05-31T00:42:19.880Z,0
2018-05-31T00:43:19.785Z,0
2018-05-31T00:44:19.880Z,0
2018-05-31T00:45:19.770Z,0
2018-05-31T00:46:19.843Z,0
2018-05-31T00:47:19.815Z,0
2018-05-31T00:48:19.876Z,0
2018-05-31T00:49:19.847Z,0
2018-05-31T00:50:19.767Z,0
2018-05-31T00:51:19.892Z,0
2018-05-31T00:52:19.880Z,0
2018-05-31T00:53:19.848Z,0
2018-05-31T00:54:19.831Z,0
2018-05-31T00:55:19.849Z,0
2018-05-31T00:56:19.852Z,0
2018-05-31T00:57:19.815Z,0
2018-05-31T00:58:19.796Z,0
2018-05-31T00:59:19.890Z,0
2018-05-31T01:00:19.757Z,0
2018-05-31T01:01:19.796Z,0
2018-05-31T01:02:19.893Z,0
2018-05-31T01:03:19.782Z,0
2018-05-31T01:04:19.885Z,0
2018-05-31T01:05:19.861Z,0
2018-05-31T01:06:19.797Z,0
2018-05-31T01:07:19.880Z,0
2018-05-31T01:08:19.821Z,0
2018-05-31T01:09:19.801Z,0
2018-05-31T01:10:19.881Z,0
2018-05-31T01:11:19.843Z,0
2018-05-31T01:12:19.890Z,0
2018-05-31T01:13:19.883Z,0
2018-05-31T01:14:19.784Z,0
2018-05-31T01:15:19.903Z,0
2018-05-31T01:16:19.870Z,0
2018-05-31T01:17:19.790Z,0
2018-05-31T01:18:19.849Z,0
2018-05-31T01:19:19.824Z,0
2018-05-31T01:20:19.831Z,0
2018-05-31T01:21:19.770Z,0
2018-05-31T01:22:19.774Z,0
2018-05-31T01:23:19.808Z,0
2018-05-31T01:24:19.852Z,0
2018-05-31T01:25:19.811Z,0
2018-05-31T01:26:19.846Z,0
2018-05-31T01:27:19.869Z,0
2018-05-31T01:28:19.849Z,0
2018-05-31T01:29:19.880Z,0
2018-05-31T01:30:19.904Z,0
2018-05-31T01:31:19.794Z,0
2018-05-31T01:32:19.915Z,0
2018-05-31T01:33:19.904Z,0
2018-05-31T01:34:19.877Z,0
2018-05-31T01:35:19.895Z,0
2018-05-31T01:36:19.908Z,0
2018-05-31T01:37:19.902Z,0
2018-05-31T01:38:19.914Z,0
2018-05-31T01:39:19.859Z,0
2018-05-31T01:40:19.754Z,0
2018-05-31T01:41:19.775Z,0
2018-05-31T01:42:19.777Z,0
2018-05-31T01:43:19.783Z,0
2018-05-31T01:44:19.875Z,0
2018-05-31T01:45:19.781Z,0
2018-05-31T01:46:19.860Z,0
2018-05-31T01:47:19.826Z,0
2018-05-31T01:48:19.868Z,0
2018-05-31T01:49:19.778Z,0
2018-05-31T01:50:19.753Z,0
2018-05-31T01:51:19.703Z,0
2018-05-31T01:52:19.729Z,0
2018-05-31T01:53:19.765Z,0
2018-05-31T01:54:19.758Z,0
2018-05-31T01:55:19.710Z,0
2018-05-31T01:56:19.715Z,0
2018-05-31T01:57:19.740Z,0
2018-05-31T01:58:19.713Z,0
2018-05-31T01:59:19.732Z,0
2018-05-31T02:00:19.975Z,0
2018-05-31T02:01:19.888Z,0
2018-05-31T02:02:19.832Z,0
2018-05-31T02:03:19.892Z,0
2018-05-31T02:04:19.815Z,0
2018-05-31T02:05:19.815Z,0
2018-05-31T02:06:19.896Z,0
2018-05-31T02:07:19.821Z,0
2018-05-31T02:08:19.893Z,0
2018-05-31T02:09:19.819Z,0
2018-05-31T02:10:19.856Z,0
2018-05-31T02:11:19.801Z,0
2018-05-31T02:12:19.891Z,0
2018-05-31T02:13:19.836Z,0
2018-05-31T02:14:19.797Z,0
2018-05-31T02:15:19.886Z,0
2018-05-31T02:16:19.897Z,0
2018-05-31T02:17:19.808Z,0
2018-05-31T02:18:19.806Z,4
2018-05-31T02:19:19.803Z,4
2018-05-31T02:20:19.842Z,4
2018-05-31T02:21:19.920Z,4
2018-05-31T02:22:19.910Z,0
2018-05-31T02:23:19.968Z,0
2018-05-31T02:24:19.912Z,4
2018-05-31T02:25:19.916Z,4
2018-05-31T02:26:19.916Z,4
2018-05-31T02:27:19.919Z,4
2018-05-31T02:28:19.844Z,4
2018-05-31T02:29:19.922Z,8
2018-05-31T02:30:19.847Z,4
2018-05-31T02:31:19.892Z,8
2018-05-31T02:32:19.915Z,8
2018-05-31T02:33:19.947Z,12
2018-05-31T02:34:19.919Z,12
2018-05-31T02:35:19.893Z,12
2018-05-31T02:36:19.824Z,16
2018-05-31T02:37:19.919Z,20
2018-05-31T02:38:19.884Z,24
2018-05-31T02:39:19.951Z,24
2018-05-31T02:40:19.947Z,28
2018-05-31T02:41:19.922Z,32
2018-05-31T02:42:19.886Z,36
2018-05-31T02:43:19.881Z,44
2018-05-31T02:44:19.930Z,44
2018-05-31T02:45:19.903Z,52
2018-05-31T02:46:19.830Z,60
2018-05-31T02:47:19.886Z,68
2018-05-31T02:48:19.893Z,76
2018-05-31T02:49:19.944Z,88
2018-05-31T02:50:19.912Z,100
2018-05-31T02:51:19.813Z,116
2018-05-31T02:52:19.926Z,136
2018-05-31T02:53:19.934Z,152
2018-05-31T02:54:19.859Z,176
2018-05-31T02:55:19.861Z,208
2018-05-31T02:56:19.865Z,232
2018-05-31T02:57:19.864Z,260
2018-05-31T02:58:19.940Z,292
2018-05-31T02:59:19.938Z,320
2018-05-31T03:00:19.949Z,352
2018-05-31T03:01:19.896Z,384
2018-05-31T03:02:19.917Z,416
2018-05-31T03:03:19.855Z,448
2018-05-31T03:04:19.874Z,476
2018-05-31T03:05:19.943Z,508
2018-05-31T03:06:19.899Z,532
2018-05-31T03:07:19.877Z,556
2018-05-31T03:08:19.863Z,592
2018-05-31T03:09:19.939Z,636
2018-05-31T03:10:19.923Z,680
2018-05-31T03:11:19.849Z,724
2018-05-31T03:12:19.841Z,764
2018-05-31T03:13:19.904Z,816
2018-05-31T03:14:19.899Z,860
2018-05-31T03:15:19.848Z,896
2018-05-31T03:16:19.899Z,964
2018-05-31T03:17:19.938Z,1040
2018-05-31T03:18:19.820Z,1116
2018-05-31T03:19:19.882Z,1192
2018-05-31T03:20:19.835Z,1260
2018-05-31T03:21:19.882Z,1328
2018-05-31T03:22:19.954Z,1404
2018-05-31T03:23:19.884Z,1488
2018-05-31T03:24:19.954Z,1564
2018-05-31T03:25:19.882Z,1624
2018-05-31T03:26:19.959Z,1672
2018-05-31T03:27:19.895Z,1740
2018-05-31T03:28:19.887Z,1792
2018-05-31T03:29:19.958Z,1804
2018-05-31T03:30:19.960Z,1820
2018-05-31T03:31:19.913Z,1832
2018-05-31T03:32:19.922Z,1864
2018-05-31T03:33:19.865Z,1940
2018-05-31T03:34:19.881Z,2044
2018-05-31T03:35:19.874Z,2176
2018-05-31T03:36:19.960Z,2348
2018-05-31T03:37:19.956Z,2560
2018-05-31T03:38:19.992Z,2768
2018-05-31T03:39:19.976Z,2956
2018-05-31T03:40:19.959Z,3144
2018-05-31T03:41:19.896Z,3316
2018-05-31T03:42:19.927Z,3472
2018-05-31T03:43:19.964Z,3588
2018-05-31T03:44:19.967Z,3672
2018-05-31T03:45:19.966Z,3772
2018-05-31T03:46:19.922Z,3896
2018-05-31T03:47:19.911Z,4008
2018-05-31T03:48:19.903Z,4136
2018-05-31T03:49:19.901Z,4256
2018-05-31T03:50:19.902Z,4380
2018-05-31T03:51:19.947Z,4540
2018-05-31T03:52:19.998Z,4708
2018-05-31T03:53:19.934Z,4816
2018-05-31T03:54:19.945Z,4916
2018-05-31T03:55:19.940Z,5060
2018-05-31T03:56:19.954Z,5128
2018-05-31T03:57:19.874Z,5212
2018-05-31T03:58:20.004Z,5408
2018-05-31T03:59:19.893Z,5716
2018-05-31T04:00:19.941Z,6124
2018-05-31T04:01:19.974Z,6480
2018-05-31T04:02:19.910Z,6728
2018-05-31T04:03:19.978Z,6944
2018-05-31T04:04:19.907Z,7140
2018-05-31T04:05:19.911Z,7148
2018-05-31T04:06:19.941Z,7328
2018-05-31T04:07:19.909Z,7440
2018-05-31T04:08:19.984Z,7536
2018-05-31T04:09:19.909Z,7808
2018-05-31T04:10:19.984Z,7740
2018-05-31T04:11:19.996Z,7592
2018-05-31T04:12:19.923Z,7484
2018-05-31T04:13:19.952Z,7372
2018-05-31T04:14:20.013Z,7316
2018-05-31T04:15:20.009Z,7236
2018-05-31T04:16:19.910Z,7172
2018-05-31T04:17:20.021Z,7004
2018-05-31T04:18:19.968Z,6592
2018-05-31T04:19:19.910Z,6216
2018-05-31T04:20:19.953Z,6224
2018-05-31T04:21:19.951Z,6464
2018-05-31T04:22:20.030Z,6776
2018-05-31T04:23:20.024Z,7080
2018-05-31T04:24:19.995Z,7364
2018-05-31T04:25:19.954Z,7992
2018-05-31T04:26:19.956Z,8784
2018-05-31T04:27:20.007Z,9240
2018-05-31T04:28:19.911Z,9424
2018-05-31T04:29:20.019Z,9504
2018-05-31T04:30:20.072Z,9532
2018-05-31T04:31:19.985Z,9660
2018-05-31T04:32:19.867Z,9776
2018-05-31T04:33:19.930Z,10012
2018-05-31T04:34:19.986Z,10324
2018-05-31T04:35:19.957Z,10448
2018-05-31T04:36:19.990Z,10796
2018-05-31T04:37:19.929Z,10900
2018-05-31T04:38:19.978Z,11188
2018-05-31T04:39:19.975Z,11448
2018-05-31T04:40:19.981Z,11824
2018-05-31T04:41:20.002Z,12004
2018-05-31T04:42:19.936Z,11928
2018-05-31T04:43:20.008Z,11800
2018-05-31T04:44:20.005Z,11752
2018-05-31T04:45:20.006Z,11664
2018-05-31T04:46:19.895Z,11760
2018-05-31T04:47:20.006Z,12060
2018-05-31T04:48:19.964Z,12476
2018-05-31T04:49:20.011Z,12932
2018-05-31T04:50:19.943Z,13320
2018-05-31T04:51:19.942Z,13748
2018-05-31T04:52:20.013Z,14032
2018-05-31T04:53:20.028Z,14280
2018-05-31T04:54:19.945Z,14648
2018-05-31T04:55:20.014Z,14748
2018-05-31T04:56:19.944Z,14864
2018-05-31T04:57:19.947Z,15064
2018-05-31T04:58:20.013Z,15324
2018-05-31T04:59:20.012Z,15828
2018-05-31T05:00:19.948Z,16036
2018-05-31T05:01:19.918Z,16316
2018-05-31T05:02:20.017Z,16660
2018-05-31T05:03:19.982Z,17020
2018-05-31T05:04:19.937Z,17796
2018-05-31T05:05:20.043Z,18600
2018-05-31T05:06:19.994Z,19264
2018-05-31T05:07:19.987Z,19340
2018-05-31T05:08:20.054Z,19504
2018-05-31T05:09:19.940Z,19708
2018-05-31T05:10:19.998Z,19712
2018-05-31T05:11:20.054Z,19724
2018-05-31T05:12:20.058Z,19632
2018-05-31T05:13:20.025Z,19356
2018-05-31T05:14:20.052Z,18812
2018-05-31T05:15:19.985Z,18944
2018-05-31T05:16:19.991Z,19092
2018-05-31T05:17:19.929Z,19000
2018-05-31T05:18:20.050Z,19112
2018-05-31T05:19:20.056Z,19940
2018-05-31T05:20:19.951Z,20676
2018-05-31T05:21:19.965Z,21888
2018-05-31T05:22:20.025Z,22496
2018-05-31T05:23:19.948Z,22752
2018-05-31T05:24:20.073Z,22912
2018-05-31T05:25:19.965Z,22560
2018-05-31T05:26:20.056Z,22176
2018-05-31T05:27:20.057Z,22304
2018-05-31T05:28:19.973Z,23232
2018-05-31T05:29:19.989Z,24256
2018-05-31T05:30:19.929Z,24864
2018-05-31T05:31:19.966Z,25632
2018-05-31T05:32:20.030Z,26080
2018-05-31T05:33:19.968Z,26208
2018-05-31T05:34:19.969Z,26208
2018-05-31T05:35:20.043Z,25888
2018-05-31T05:36:20.039Z,25888
2018-05-31T05:37:19.968Z,26464
2018-05-31T05:38:19.920Z,27552
2018-05-31T05:39:20.060Z,29056
2018-05-31T05:40:20.005Z,30080
2018-05-31T05:41:20.080Z,29984
2018-05-31T05:42:20.046Z,29888
2018-05-31T05:43:20.038Z,30464
2018-05-31T05:44:20.023Z,31008
2018-05-31T05:45:20.066Z,30528
2018-05-31T05:46:20.062Z,29888
2018-05-31T05:47:20.062Z,29152
2018-05-31T05:48:20.023Z,28352
2018-05-31T05:49:19.973Z,29120
2018-05-31T05:50:20.074Z,30944
2018-05-31T05:51:20.028Z,32224
2018-05-31T05:52:19.953Z,32992
2018-05-31T05:53:20.025Z,32800
2018-05-31T05:54:20.025Z,32160
2018-05-31T05:55:19.968Z,31232
2018-05-31T05:56:20.059Z,30976
2018-05-31T05:57:20.089Z,30592
2018-05-31T05:58:20.049Z,29888
2018-05-31T05:59:20.011Z,30240
2018-05-31T06:00:20.051Z,32448
2018-05-31T06:01:20.080Z,33376
2018-05-31T06:02:20.073Z,33760
2018-05-31T06:03:20.096Z,34272
2018-05-31T06:04:20.094Z,38656
2018-05-31T06:05:19.959Z,46592
2018-05-31T06:06:20.023Z,48704
2018-05-31T06:07:20.055Z,47712
2018-05-31T06:08:20.042Z,44192
2018-05-31T06:09:20.085Z,55264
2018-05-31T06:10:20.004Z,56032
2018-05-31T06:11:19.991Z,53024
2018-05-31T06:12:19.948Z,59136
2018-05-31T06:13:19.961Z,59392
2018-05-31T06:14:20.072Z,57280
2018-05-31T06:15:19.994Z,58816
2018-05-31T06:16:20.062Z,59200
2018-05-31T06:17:20.000Z,59968
2018-05-31T06:18:20.003Z,61536
2018-05-31T06:19:20.070Z,61184
2018-05-31T06:20:20.084Z,61536
2018-05-31T06:21:20.102Z,61664
2018-05-31T06:22:20.042Z,54464
2018-05-31T06:23:19.988Z,39584
2018-05-31T06:24:19.973Z,58976
2018-05-31T06:25:20.107Z,63680
2018-05-31T06:26:20.132Z,62080
2018-05-31T06:27:20.072Z,59264
2018-05-31T06:28:19.973Z,57440
2018-05-31T06:29:20.079Z,55968
2018-05-31T06:30:20.095Z,54592
2018-05-31T06:31:19.967Z,53696
2018-05-31T06:32:20.030Z,53120
2018-05-31T06:33:20.011Z,52128
2018-05-31T06:34:20.023Z,51680
2018-05-31T06:35:20.078Z,52256
2018-05-31T06:36:20.012Z,55104
2018-05-31T06:37:20.083Z,66752
2018-05-31T06:38:20.010Z,70176
2018-05-31T06:39:20.009Z,71360
2018-05-31T06:40:20.082Z,72480
2018-05-31T06:41:20.018Z,73984
2018-05-31T06:42:20.083Z,74784
2018-05-31T06:43:20.024Z,73088
2018-05-31T06:44:20.084Z,70944
2018-05-31T06:45:20.013Z,69120
2018-05-31T06:46:20.087Z,67328
2018-05-31T06:47:20.014Z,67680
2018-05-31T06:48:20.085Z,71616
2018-05-31T06:49:20.085Z,76192
2018-05-31T06:50:20.018Z,80864
2018-05-31T06:51:20.086Z,83776
2018-05-31T06:52:20.073Z,86208
2018-05-31T06:53:20.064Z,87136
2018-05-31T06:54:20.195Z,87136
2018-05-31T06:55:20.085Z,86336
2018-05-31T06:56:20.089Z,87008
2018-05-31T06:57:20.154Z,87552
2018-05-31T06:58:20.110Z,88032
2018-05-31T06:59:20.129Z,87296
2018-05-31T07:00:20.131Z,86560
2018-05-31T07:01:20.119Z,86176
2018-05-31T07:02:20.097Z,84576
2018-05-31T07:03:20.135Z,83360
2018-05-31T07:04:20.064Z,81888
2018-05-31T07:05:20.020Z,81952
2018-05-31T07:06:20.125Z,84000
2018-05-31T07:07:20.096Z,87712
2018-05-31T07:08:20.064Z,91648
2018-05-31T07:09:20.063Z,95104
2018-05-31T07:10:20.136Z,97216
2018-05-31T07:11:20.122Z,99360
2018-05-31T07:12:20.103Z,100000
2018-05-31T07:13:20.159Z,99456
2018-05-31T07:14:20.012Z,97312
2018-05-31T07:15:20.038Z,96064
2018-05-31T07:16:20.078Z,94208
2018-05-31T07:17:20.102Z,93024
2018-05-31T07:18:20.104Z,92704
2018-05-31T07:19:20.131Z,92416
2018-05-31T07:20:20.145Z,94016
2018-05-31T07:21:20.113Z,95840
2018-05-31T07:22:20.111Z,98208
2018-05-31T07:23:20.039Z,100384
2018-05-31T07:24:20.115Z,102816
2018-05-31T07:25:20.112Z,104160
2018-05-31T07:26:20.041Z,104192
2018-05-31T07:27:20.130Z,103872
2018-05-31T07:28:20.116Z,101952
2018-05-31T07:29:20.044Z,101536
2018-05-31T07:30:20.116Z,100576
2018-05-31T07:31:20.019Z,98848
2018-05-31T07:32:20.056Z,99552
2018-05-31T07:33:19.986Z,100416
2018-05-31T07:34:20.055Z,100896
2018-05-31T07:35:20.016Z,102688
2018-05-31T07:36:20.081Z,102912
2018-05-31T07:37:20.011Z,103424
2018-05-31T07:38:20.093Z,104128
2018-05-31T07:39:20.013Z,105440
2018-05-31T07:40:20.049Z,106720
2018-05-31T07:41:20.056Z,106592
2018-05-31T07:42:20.089Z,105728
2018-05-31T07:43:20.101Z,105824
2018-05-31T07:44:20.189Z,107104
2018-05-31T07:45:20.153Z,109344
2018-05-31T07:46:20.183Z,111328
2018-05-31T07:47:20.127Z,111840
2018-05-31T07:48:20.092Z,111840
2018-05-31T07:49:20.096Z,110976
2018-05-31T07:50:20.127Z,109600
2018-05-31T07:51:20.097Z,109888
2018-05-31T07:52:20.123Z,111264
2018-05-31T07:53:20.070Z,112672
2018-05-31T07:54:20.165Z,114912
2018-05-31T07:55:20.050Z,115840
2018-05-31T07:56:20.095Z,115872
2018-05-31T07:57:20.151Z,115424
2018-05-31T07:58:20.107Z,116320
2018-05-31T07:59:20.145Z,116672
2018-05-31T08:00:20.048Z,117344
2018-05-31T08:01:20.155Z,117728
2018-05-31T08:02:20.096Z,118784
2018-05-31T08:03:20.099Z,119776
2018-05-31T08:04:20.125Z,120128
2018-05-31T08:05:20.017Z,120928
2018-05-31T08:06:20.014Z,121312
2018-05-31T08:07:20.126Z,120224
2018-05-31T08:08:20.087Z,118208
2018-05-31T08:09:20.019Z,117984
2018-05-31T08:10:20.131Z,119232
2018-05-31T08:11:20.166Z,120832
2018-05-31T08:12:20.084Z,123520
2018-05-31T08:13:20.171Z,125472
2018-05-31T08:14:20.100Z,126048
2018-05-31T08:15:20.067Z,124320
2018-05-31T08:16:20.106Z,122176
2018-05-31T08:17:20.099Z,121440
2018-05-31T08:18:20.069Z,121440
2018-05-31T08:19:20.138Z,121216
2018-05-31T08:20:20.142Z,121440
2018-05-31T08:21:20.086Z,121856
2018-05-31T08:22:20.077Z,122272
2018-05-31T08:23:20.081Z,121184
2018-05-31T08:24:20.148Z,119968
2018-05-31T08:25:20.151Z,119520
2018-05-31T08:26:20.147Z,120672
2018-05-31T08:27:20.083Z,123680
2018-05-31T08:28:20.090Z,126656
2018-05-31T08:29:20.086Z,130112
2018-05-31T08:30:20.088Z,133696
2018-05-31T08:31:20.135Z,134464
2018-05-31T08:32:20.153Z,132832
2018-05-31T08:33:20.092Z,130144
2018-05-31T08:34:20.186Z,127296
2018-05-31T08:35:20.159Z,125504
2018-05-31T08:36:20.084Z,126048
2018-05-31T08:37:20.158Z,128352
2018-05-31T08:38:20.098Z,130688
2018-05-31T08:39:20.158Z,132928
2018-05-31T08:40:20.094Z,134080
2018-05-31T08:41:20.158Z,134560
2018-05-31T08:42:20.066Z,134016
2018-05-31T08:43:20.060Z,134112
2018-05-31T08:44:20.106Z,134080
2018-05-31T08:45:20.016Z,135968
2018-05-31T08:46:20.022Z,139712
2018-05-31T08:47:20.063Z,141088
2018-05-31T08:48:20.063Z,141952
2018-05-31T08:49:20.113Z,140192
2018-05-31T08:50:20.179Z,137984
2018-05-31T08:51:20.115Z,134688
2018-05-31T08:52:20.165Z,131680
2018-05-31T08:53:20.186Z,129248
2018-05-31T08:54:20.128Z,102240
2018-05-31T08:55:20.144Z,112576
2018-05-31T08:56:20.185Z,125664
2018-05-31T08:57:20.159Z,130240
2018-05-31T08:58:20.200Z,113216
2018-05-31T08:59:20.129Z,90048
2018-05-31T09:00:20.153Z,116704
2018-05-31T09:01:20.075Z,127104
2018-05-31T09:02:20.132Z,141152
2018-05-31T09:03:20.071Z,138976
2018-05-31T09:04:20.138Z,136640
2018-05-31T09:05:20.150Z,133408
2018-05-31T09:06:20.213Z,136576
2018-05-31T09:07:20.136Z,138336
2018-05-31T09:08:20.010Z,138176
2018-05-31T09:09:20.146Z,140288
2018-05-31T09:10:20.155Z,141312
2018-05-31T09:11:20.151Z,142016
2018-05-31T09:12:20.153Z,142336
2018-05-31T09:13:20.176Z,143712
2018-05-31T09:14:20.117Z,139488
2018-05-31T09:15:20.211Z,139840
2018-05-31T09:16:20.158Z,141600
2018-05-31T09:17:20.214Z,140832
2018-05-31T09:18:20.083Z,140704
2018-05-31T09:19:20.212Z,143136
2018-05-31T09:20:20.219Z,145600
2018-05-31T09:21:20.091Z,147072
2018-05-31T09:22:20.182Z,147200
2018-05-31T09:23:20.116Z,146592
2018-05-31T09:24:20.182Z,146592
2018-05-31T09:25:20.173Z,146496
2018-05-31T09:26:20.188Z,144992
2018-05-31T09:27:20.125Z,144800
2018-05-31T09:28:20.187Z,144128
2018-05-31T09:29:20.126Z,144128
2018-05-31T09:30:20.195Z,143840
2018-05-31T09:31:20.194Z,143584
2018-05-31T09:32:20.122Z,144544
2018-05-31T09:33:20.197Z,146112
2018-05-31T09:34:20.195Z,147680
2018-05-31T09:35:20.125Z,149920
2018-05-31T09:36:20.215Z,152480
2018-05-31T09:37:20.197Z,152800
2018-05-31T09:38:20.130Z,152576
2018-05-31T09:39:20.194Z,151776
2018-05-31T09:40:20.127Z,150464
2018-05-31T09:41:20.132Z,150624
2018-05-31T09:42:20.238Z,152448
2018-05-31T09:43:20.118Z,153312
2018-05-31T09:44:20.239Z,155008
2018-05-31T09:45:20.236Z,155808
2018-05-31T09:46:20.205Z,154208
2018-05-31T09:47:20.182Z,148736
2018-05-31T09:48:20.201Z,138336
2018-05-31T09:49:20.228Z,135968
2018-05-31T09:50:20.112Z,132032
2018-05-31T09:51:20.246Z,137664
2018-05-31T09:52:20.184Z,144000
2018-05-31T09:53:20.146Z,146080
2018-05-31T09:54:20.187Z,144192
2018-05-31T09:55:20.205Z,155712
2018-05-31T09:56:20.239Z,163488
2018-05-31T09:57:20.210Z,150944
2018-05-31T09:58:20.292Z,137664
2018-05-31T09:59:20.250Z,129824
2018-05-31T10:00:20.151Z,134016
2018-05-31T10:01:20.119Z,131296
2018-05-31T10:02:20.110Z,131136
2018-05-31T10:03:20.207Z,136960
2018-05-31T10:04:20.173Z,145984
2018-05-31T10:05:20.115Z,155200
2018-05-31T10:06:20.251Z,160672
2018-05-31T10:07:20.248Z,154496
2018-05-31T10:08:20.140Z,151584
2018-05-31T10:09:20.192Z,132896
2018-05-31T10:10:20.191Z,143168
2018-05-31T10:11:20.114Z,137568
2018-05-31T10:12:20.172Z,141344
2018-05-31T10:13:20.138Z,143584
2018-05-31T10:14:20.220Z,144480
2018-05-31T10:15:20.192Z,156640
2018-05-31T10:16:20.222Z,165056
2018-05-31T10:17:20.192Z,165184
2018-05-31T10:18:20.245Z,165248
2018-05-31T10:19:20.183Z,162976
2018-05-31T10:20:20.263Z,162944
2018-05-31T10:21:20.241Z,164224
2018-05-31T10:22:20.079Z,164800
2018-05-31T10:23:20.088Z,165440
2018-05-31T10:24:20.081Z,164128
2018-05-31T10:25:20.132Z,156960
2018-05-31T10:26:20.172Z,158336
2018-05-31T10:27:20.133Z,156192
2018-05-31T10:28:20.174Z,161216
2018-05-31T10:29:20.175Z,161152
2018-05-31T10:30:20.176Z,159712
2018-05-31T10:31:20.086Z,156864
2018-05-31T10:32:20.234Z,160928
2018-05-31T10:33:20.169Z,159328
2018-05-31T10:34:20.235Z,158080
2018-05-31T10:35:20.271Z,149472
2018-05-31T10:36:20.235Z,161824
2018-05-31T10:37:20.168Z,161792
2018-05-31T10:38:20.166Z,159424
2018-05-31T10:39:20.238Z,158240
2018-05-31T10:40:20.170Z,159456
2018-05-31T10:41:20.168Z,162496
2018-05-31T10:42:20.238Z,157152
2018-05-31T10:43:20.265Z,169472
2018-05-31T10:44:20.244Z,173696
2018-05-31T10:45:20.240Z,81728
2018-05-31T10:46:20.303Z,69888
2018-05-31T10:47:20.269Z,60768
2018-05-31T10:48:20.219Z,158208
2018-05-31T10:49:20.150Z,163840
2018-05-31T10:50:20.268Z,164256
2018-05-31T10:51:20.212Z,163584
2018-05-31T10:52:20.205Z,165088
2018-05-31T10:53:20.224Z,167424
2018-05-31T10:54:20.246Z,167104
2018-05-31T10:55:20.248Z,169440
2018-05-31T10:56:20.219Z,170656
2018-05-31T10:57:20.214Z,167904
2018-05-31T10:58:20.171Z,162976
2018-05-31T10:59:20.349Z,158528
2018-05-31T11:00:20.272Z,155168
2018-05-31T11:01:20.221Z,153312
2018-05-31T11:02:20.184Z,152992
2018-05-31T11:03:20.255Z,156640
2018-05-31T11:04:20.187Z,161920
2018-05-31T11:05:20.258Z,164288
2018-05-31T11:06:20.242Z,162592
2018-05-31T11:07:20.259Z,159200
2018-05-31T11:08:20.191Z,153888
2018-05-31T11:09:20.192Z,149152
2018-05-31T11:10:20.261Z,145888
2018-05-31T11:11:20.260Z,146016
2018-05-31T11:12:20.155Z,149536
2018-05-31T11:13:20.276Z,153408
2018-05-31T11:14:20.223Z,153696
2018-05-31T11:15:20.285Z,154752
2018-05-31T11:16:20.225Z,154592
2018-05-31T11:17:20.164Z,149312
2018-05-31T11:18:20.260Z,146816
2018-05-31T11:19:20.223Z,144608
2018-05-31T11:20:20.220Z,146496
2018-05-31T11:21:20.260Z,149856
2018-05-31T11:22:20.199Z,152032
2018-05-31T11:23:20.264Z,153152
2018-05-31T11:24:20.267Z,154656
2018-05-31T11:25:20.271Z,154144
2018-05-31T11:26:20.304Z,151648
2018-05-31T11:27:20.200Z,150528
2018-05-31T11:28:20.280Z,151872
2018-05-31T11:29:20.305Z,157248
2018-05-31T11:30:20.204Z,163520
2018-05-31T11:31:20.274Z,168544
2018-05-31T11:32:20.215Z,169120
2018-05-31T11:33:20.239Z,166304
2018-05-31T11:34:20.253Z,161056
2018-05-31T11:35:20.182Z,155904
2018-05-31T11:36:20.250Z,151776
2018-05-31T11:37:20.295Z,149632
2018-05-31T11:38:20.237Z,149856
2018-05-31T11:39:20.313Z,152192
2018-05-31T11:40:20.248Z,156160
2018-05-31T11:41:20.278Z,159552
2018-05-31T11:42:20.223Z,160640
2018-05-31T11:43:20.225Z,158656
2018-05-31T11:44:20.134Z,154272
2018-05-31T11:45:20.136Z,149664
2018-05-31T11:46:20.228Z,146624
2018-05-31T11:47:20.228Z,145536
2018-05-31T11:48:20.136Z,151424
2018-05-31T11:49:20.141Z,156096
2018-05-31T11:50:20.180Z,156064
2018-05-31T11:51:20.143Z,156512
2018-05-31T11:52:20.172Z,156384
2018-05-31T11:53:20.280Z,155200
2018-05-31T11:54:20.163Z,153024
2018-05-31T11:55:20.187Z,151680
2018-05-31T11:56:20.308Z,150624
2018-05-31T11:57:20.196Z,151296
2018-05-31T11:58:20.195Z,154912
2018-05-31T11:59:20.231Z,160640
2018-05-31T12:00:20.273Z,163680
2018-05-31T12:01:20.296Z,167328
2018-05-31T12:02:20.292Z,170400
2018-05-31T12:03:20.292Z,170432
2018-05-31T12:04:20.293Z,170528
2018-05-31T12:05:20.226Z,169024
2018-05-31T12:06:20.229Z,166080
2018-05-31T12:07:20.228Z,164864
2018-05-31T12:08:20.257Z,159616
2018-05-31T12:09:20.314Z,163328
2018-05-31T12:10:20.229Z,159648
2018-05-31T12:11:20.201Z,159264
2018-05-31T12:12:20.286Z,160416
2018-05-31T12:13:20.165Z,157632
2018-05-31T12:14:20.202Z,156576
2018-05-31T12:15:20.167Z,155104
2018-05-31T12:16:20.207Z,154784
2018-05-31T12:17:20.268Z,153824
2018-05-31T12:18:20.306Z,153920
2018-05-31T12:19:20.291Z,154688
2018-05-31T12:20:20.293Z,155488
2018-05-31T12:21:20.288Z,153728
2018-05-31T12:22:20.329Z,150144
2018-05-31T12:23:20.302Z,148352
2018-05-31T12:24:20.215Z,146400
2018-05-31T12:25:20.299Z,145312
2018-05-31T12:26:20.338Z,144832
2018-05-31T12:27:20.343Z,143840
2018-05-31T12:28:20.275Z,147520
2018-05-31T12:29:20.269Z,150752
2018-05-31T12:30:20.337Z,148736
2018-05-31T12:31:20.337Z,145248
2018-05-31T12:32:20.271Z,141600
2018-05-31T12:33:20.203Z,141856
2018-05-31T12:34:20.185Z,141344
2018-05-31T12:35:20.269Z,141152
2018-05-31T12:36:20.247Z,142304
2018-05-31T12:37:20.303Z,143424
2018-05-31T12:38:20.274Z,143360
2018-05-31T12:39:20.186Z,144992
2018-05-31T12:40:20.245Z,145888
2018-05-31T12:41:20.253Z,148896
2018-05-31T12:42:20.292Z,149408
2018-05-31T12:43:20.277Z,148192
2018-05-31T12:44:20.257Z,146432
2018-05-31T12:45:20.290Z,144928
2018-05-31T12:46:20.299Z,144704
2018-05-31T12:47:20.355Z,143776
2018-05-31T12:48:20.296Z,145248
2018-05-31T12:49:20.366Z,147456
2018-05-31T12:50:20.351Z,149248
2018-05-31T12:51:20.359Z,150272
2018-05-31T12:52:20.234Z,149376
2018-05-31T12:53:20.367Z,146464
2018-05-31T12:54:20.290Z,145920
2018-05-31T12:55:20.302Z,147136
2018-05-31T12:56:20.360Z,149312
2018-05-31T12:57:20.366Z,152000
2018-05-31T12:58:20.355Z,150976
2018-05-31T12:59:20.268Z,147040
2018-05-31T13:00:20.332Z,146016
2018-05-31T13:01:20.355Z,146496
2018-05-31T13:02:20.268Z,143296
2018-05-31T13:03:20.250Z,131008
2018-05-31T13:04:20.321Z,85152
2018-05-31T13:05:20.330Z,70464
2018-05-31T13:06:20.268Z,145344
2018-05-31T13:07:20.335Z,148864